Share

Oxford, MS

University-Oxford (KUOX) Elev 453 ft | 34.38 °N, 89.54 °W | Change Station

Current weather conditions updated 9 minutes ago

Clear
Clear
75 °F
Feels Like 75 °F
N
5
Wind Variable Wind from NW
Sunrise 6:20 AM
Sunset 7:33 PM
Moon Waning Gibbous

Today is forecast to be nearly the same temperature as yesterday.

Pressure 30.19 in
Visibility 10.0 miles
Clouds Clear
Dew Point 45 °F
Humidity 34%
Rainfall 0.00 in
Snow Depth Not available.
UV 11 out of 16
Pollen 8.60 out of 12
Air Quality Not available.
Flu Activity No Activity
METAR KUOX 201835Z AUTO 32004KT 10SM CLR 24/07 A3019 RMK AO2

More Conditions Fewer Conditions

Pressure 30.19 in
Visibility 10.0 miles
Clouds Clear
Dew Point 45 °F
Humidity 34%
Rainfall 0.00 in
Snow Depth Not available.
UV 11 out of 16
Pollen 8.60 out of 12
Air Quality Not available.
Flu Activity No Activity
METAR KUOX 201835Z AUTO 32004KT 10SM CLR 24/07 A3019 RMK AO2

More Conditions Fewer Conditions

10-Day Weather Forecast

Almanac

Astronomy

Apr. 20, 2014 Rise Set
Actual Time 6:20 AM CDT 7:33 PM CDT
Civil Twilight 5:54 AM CDT 8:00 PM CDT
Nautical Twilight 5:23 AM CDT 8:31 PM CDT
Astronomical Twilight 4:51 AM CDT 9:03 PM CDT
Moon 12:08 AM CDT 10:46 AM CDT
Length of Visible Light 14h 05m
Length of Day
13h 13m
Tomorrow will be 1m 58s longer.
Waning Gibbous, 67% of the Moon is Illuminated
Today
Waning Gibbous
Apr 22
Last Quarter
Apr 29
New
May 6
First Quarter
May 14
Full

Today's Extremes

State Highs State Lows

Community

  • Columbine
    Columbine
  • Easter Sunrise
    Easter Sunrise
  • Easter Eve - The Promise - Lake Palestine, TX
    Easter Eve - The Promise - Lake Palestine, TX
  • Happy Easter
    Happy Easter
  • EARLY FOGGY MORNING
    EARLY FOGGY MORNING

WunderPhotos

Upload Photos

1,703,303 photos uploaded!

WunderBlogs® & News

Nearby

Snow Depth

Station Depth Elevation
No new snow has been reported.

Coastal Water Temperatures

Place Temperature
No Stations Reporting

Earthquake Activity

City Distance Mag. Time & Date
No recent earthquake activity has been reported nearby.
Minimum magnitude displayed is 2.5.

Nearby Weather Stations

Station Location Temp. Heat Index Dew Point Humidity Wind Precip. Elev Updated Type
RAWS WINBORN MS, Potts Camp, MS 78 °F 78 °F 48 °F 35% SE  at  4 mph 0.00 in / hr 500 ft 1:09 PM CDT MADIS

Show More Stations Show Fewer Stations

What do you think?

We're not finished. Please let us know what you like, what you don't like, and what you are still missing.